sensor_id;sensor_type;location;lat;lon;timestamp;pressure;altitude;pressure_sealevel;temperature;humidity
46714;BME280;32445;51.376;10.874;2022-11-27T00:02:46;100734.94;;;4.56;58.31
46714;BME280;32445;51.376;10.874;2022-11-27T00:05:57;100719.38;;;4.49;58.17
46714;BME280;32445;51.376;10.874;2022-11-27T00:09:03;100718.50;;;4.47;57.99
46714;BME280;32445;51.376;10.874;2022-11-27T00:12:04;100705.56;;;4.43;58.32
46714;BME280;32445;51.376;10.874;2022-11-27T00:15:05;100697.78;;;4.40;58.10
46714;BME280;32445;51.376;10.874;2022-11-27T00:18:05;100684.00;;;4.35;58.23
46714;BME280;32445;51.376;10.874;2022-11-27T00:21:09;100691.63;;;4.30;58.32
46714;BME280;32445;51.376;10.874;2022-11-27T00:24:10;100695.81;;;4.26;58.15
46714;BME280;32445;51.376;10.874;2022-11-27T00:27:11;100697.41;;;4.20;57.97
46714;BME280;32445;51.376;10.874;2022-11-27T00:30:12;100700.81;;;4.17;57.83
46714;BME280;32445;51.376;10.874;2022-11-27T00:33:12;100696.41;;;4.11;58.31
46714;BME280;32445;51.376;10.874;2022-11-27T00:36:14;100710.03;;;4.07;57.85
46714;BME280;32445;51.376;10.874;2022-11-27T00:39:15;100702.28;;;4.04;57.78
46714;BME280;32445;51.376;10.874;2022-11-27T00:42:15;100715.91;;;4.02;58.00
46714;BME280;32445;51.376;10.874;2022-11-27T00:45:15;100703.00;;;3.98;58.06
46714;BME280;32445;51.376;10.874;2022-11-27T00:48:16;100703.81;;;3.96;58.36
46714;BME280;32445;51.376;10.874;2022-11-27T00:51:18;100696.91;;;3.93;57.82
46714;BME280;32445;51.376;10.874;2022-11-27T00:54:19;100689.13;;;3.90;58.18
46714;BME280;32445;51.376;10.874;2022-11-27T00:57:20;100691.66;;;3.87;58.13
46714;BME280;32445;51.376;10.874;2022-11-27T01:00:21;100695.00;;;3.85;58.42
46714;BME280;32445;51.376;10.874;2022-11-27T01:03:26;100703.53;;;3.84;58.40
46714;BME280;32445;51.376;10.874;2022-11-27T01:06:27;100706.06;;;3.80;58.76
46714;BME280;32445;51.376;10.874;2022-11-27T01:09:28;100695.75;;;3.79;57.97
46714;BME280;32445;51.376;10.874;2022-11-27T01:12:28;100700.03;;;3.78;58.41
46714;BME280;32445;51.376;10.874;2022-11-27T01:15:29;100698.25;;;3.76;58.93
46714;BME280;32445;51.376;10.874;2022-11-27T01:18:29;100691.34;;;3.73;58.39
46714;BME280;32445;51.376;10.874;2022-11-27T01:21:31;100699.84;;;3.71;58.29
46714;BME280;32445;51.376;10.874;2022-11-27T01:24:32;100680.13;;;3.68;58.35
46714;BME280;32445;51.376;10.874;2022-11-27T01:27:33;100681.75;;;3.64;58.44
46714;BME280;32445;51.376;10.874;2022-11-27T01:30:36;100679.16;;;3.63;58.63
46714;BME280;32445;51.376;10.874;2022-11-27T01:33:37;100679.16;;;3.63;58.41
46714;BME280;32445;51.376;10.874;2022-11-27T01:36:37;100669.69;;;3.60;58.72
46714;BME280;32445;51.376;10.874;2022-11-27T01:39:38;100667.94;;;3.59;58.36
46714;BME280;32445;51.376;10.874;2022-11-27T01:42:38;100666.22;;;3.57;58.86
46714;BME280;32445;51.376;10.874;2022-11-27T01:45:38;100655.88;;;3.55;58.75
46714;BME280;32445;51.376;10.874;2022-11-27T01:48:39;100660.97;;;3.54;58.68
46714;BME280;32445;51.376;10.874;2022-11-27T01:51:57;100654.00;;;3.48;58.26
46714;BME280;32445;51.376;10.874;2022-11-27T01:55:11;100657.47;;;3.49;58.52
46714;BME280;32445;51.376;10.874;2022-11-27T01:58:24;100649.72;;;3.45;58.50
46714;BME280;32445;51.376;10.874;2022-11-27T02:01:26;100654.81;;;3.44;58.59
46714;BME280;32445;51.376;10.874;2022-11-27T02:04:27;100659.03;;;3.42;58.65
46714;BME280;32445;51.376;10.874;2022-11-27T02:07:27;100657.22;;;3.38;58.63
46714;BME280;32445;51.376;10.874;2022-11-27T02:14:34;100636.56;;;3.32;58.71
46714;BME280;32445;51.376;10.874;2022-11-27T02:21:19;100625.28;;;3.23;58.65
46714;BME280;32445;51.376;10.874;2022-11-27T02:31:17;100629.31;;;3.14;58.89
46714;BME280;32445;51.376;10.874;2022-11-27T02:37:35;100627.47;;;3.06;58.46
46714;BME280;32445;51.376;10.874;2022-11-27T02:43:48;100624.75;;;3.00;59.27
46714;BME280;32445;51.376;10.874;2022-11-27T02:46:49;100627.25;;;2.97;58.46
46714;BME280;32445;51.376;10.874;2022-11-27T02:49:50;100638.31;;;2.94;58.82
46714;BME280;32445;51.376;10.874;2022-11-27T02:52:54;100634.81;;;2.91;59.00
46714;BME280;32445;51.376;10.874;2022-11-27T02:55:57;100640.78;;;2.90;59.05
46714;BME280;32445;51.376;10.874;2022-11-27T02:59:01;100622.78;;;2.88;58.73
46714;BME280;32445;51.376;10.874;2022-11-27T03:02:09;100627.00;;;2.86;59.32
46714;BME280;32445;51.376;10.874;2022-11-27T03:05:14;100626.16;;;2.86;58.52
46714;BME280;32445;51.376;10.874;2022-11-27T03:08:34;100620.06;;;2.82;59.46
46714;BME280;32445;51.376;10.874;2022-11-27T03:11:36;100626.94;;;2.83;59.18
46714;BME280;32445;51.376;10.874;2022-11-27T03:14:39;100616.66;;;2.82;59.27
46714;BME280;32445;51.376;10.874;2022-11-27T03:17:55;100607.19;;;2.79;59.69
46714;BME280;32445;51.376;10.874;2022-11-27T03:21:04;100600.34;;;2.78;59.50
46714;BME280;32445;51.376;10.874;2022-11-27T03:24:08;100596.88;;;2.77;59.45
46714;BME280;32445;51.376;10.874;2022-11-27T03:27:12;100596.84;;;2.76;59.38
46714;BME280;32445;51.376;10.874;2022-11-27T03:30:15;100597.69;;;2.75;59.03
46714;BME280;32445;51.376;10.874;2022-11-27T03:33:16;100598.53;;;2.74;59.53
46714;BME280;32445;51.376;10.874;2022-11-27T03:36:19;100600.19;;;2.73;59.65
46714;BME280;32445;51.376;10.874;2022-11-27T03:39:20;100602.78;;;2.73;59.18
46714;BME280;32445;51.376;10.874;2022-11-27T03:45:59;100599.41;;;2.76;59.35
46714;BME280;32445;51.376;10.874;2022-11-27T03:49:19;100596.88;;;2.77;59.26
46714;BME280;32445;51.376;10.874;2022-11-27T03:58:58;100585.84;;;2.80;60.08
46714;BME280;32445;51.376;10.874;2022-11-27T04:02:01;100579.91;;;2.83;59.78
46714;BME280;32445;51.376;10.874;2022-11-27T04:05:02;100580.81;;;2.85;59.77
46714;BME280;32445;51.376;10.874;2022-11-27T04:08:03;100583.44;;;2.88;59.59
46714;BME280;32445;51.376;10.874;2022-11-27T04:11:03;100568.03;;;2.88;59.62
46714;BME280;32445;51.376;10.874;2022-11-27T04:14:04;100568.03;;;2.88;59.77
46714;BME280;32445;51.376;10.874;2022-11-27T04:17:04;100572.28;;;2.86;60.07
46714;BME280;32445;51.376;10.874;2022-11-27T04:20:06;100578.22;;;2.83;60.04
46714;BME280;32445;51.376;10.874;2022-11-27T04:23:06;100589.25;;;2.81;59.92
46714;BME280;32445;51.376;10.874;2022-11-27T04:26:06;100586.66;;;2.79;60.00
46714;BME280;32445;51.376;10.874;2022-11-27T04:29:07;100592.56;;;2.76;59.88
46714;BME280;32445;51.376;10.874;2022-11-27T04:32:07;100593.44;;;2.75;59.56
46714;BME280;32445;51.376;10.874;2022-11-27T04:35:08;100600.25;;;2.75;59.66
46714;BME280;32445;51.376;10.874;2022-11-27T04:38:08;100603.69;;;2.75;59.86
46714;BME280;32445;51.376;10.874;2022-11-27T04:41:09;100615.66;;;2.76;59.75
46714;BME280;32445;51.376;10.874;2022-11-27T04:44:10;100619.97;;;2.77;60.03
46714;BME280;32445;51.376;10.874;2022-11-27T04:47:11;100607.19;;;2.79;59.94
46714;BME280;32445;51.376;10.874;2022-11-27T04:50:11;100609.78;;;2.81;59.61
46714;BME280;32445;51.376;10.874;2022-11-27T04:53:11;100605.56;;;2.83;60.25
46714;BME280;32445;51.376;10.874;2022-11-27T04:56:12;100606.41;;;2.83;60.29
46714;BME280;32445;51.376;10.874;2022-11-27T04:59:13;100602.22;;;2.85;60.04
46714;BME280;32445;51.376;10.874;2022-11-27T05:02:13;100601.34;;;2.86;60.18
46714;BME280;32445;51.376;10.874;2022-11-27T05:05:14;100596.22;;;2.86;60.16
46714;BME280;32445;51.376;10.874;2022-11-27T05:08:16;100590.25;;;2.86;60.27
46714;BME280;32445;51.376;10.874;2022-11-27T05:11:16;100578.25;;;2.85;60.18
46714;BME280;32445;51.376;10.874;2022-11-27T05:14:17;100581.69;;;2.85;59.88
46714;BME280;32445;51.376;10.874;2022-11-27T05:17:18;100581.66;;;2.84;59.98
46714;BME280;32445;51.376;10.874;2022-11-27T05:20:19;100580.78;;;2.83;60.02
46714;BME280;32445;51.376;10.874;2022-11-27T05:23:19;100579.97;;;2.86;60.17
46714;BME280;32445;51.376;10.874;2022-11-27T05:26:20;100578.31;;;2.88;60.24
46714;BME280;32445;51.376;10.874;2022-11-27T05:29:21;100572.38;;;2.90;60.59
46714;BME280;32445;51.376;10.874;2022-11-27T05:32:21;100576.66;;;2.90;60.30
46714;BME280;32445;51.376;10.874;2022-11-27T05:35:22;100569.84;;;2.92;60.14
46714;BME280;32445;51.376;10.874;2022-11-27T05:38:22;100566.50;;;2.94;60.51
46714;BME280;32445;51.376;10.874;2022-11-27T05:41:22;100563.94;;;2.94;60.35
46714;BME280;32445;51.376;10.874;2022-11-27T05:44:24;100558.81;;;2.94;60.19
46714;BME280;32445;51.376;10.874;2022-11-27T05:47:25;100561.44;;;2.98;60.60
46714;BME280;32445;51.376;10.874;2022-11-27T05:50:25;100562.31;;;2.98;59.96
46714;BME280;32445;51.376;10.874;2022-11-27T05:53:26;100561.44;;;2.98;59.41
46714;BME280;32445;51.376;10.874;2022-11-27T05:56:26;100556.31;;;2.98;59.91
46714;BME280;32445;51.376;10.874;2022-11-27T05:59:26;100553.72;;;2.98;60.05
46714;BME280;32445;51.376;10.874;2022-11-27T06:02:27;100554.63;;;2.98;59.99
46714;BME280;32445;51.376;10.874;2022-11-27T06:05:27;100547.81;;;3.00;60.14
46714;BME280;32445;51.376;10.874;2022-11-27T06:08:28;100540.94;;;2.99;60.07
46714;BME280;32445;51.376;10.874;2022-11-27T06:11:28;100536.69;;;3.00;60.38
46714;BME280;32445;51.376;10.874;2022-11-27T06:14:28;100535.81;;;2.99;60.20
46714;BME280;32445;51.376;10.874;2022-11-27T06:17:30;100524.72;;;3.00;60.32
46714;BME280;32445;51.376;10.874;2022-11-27T06:20:31;100522.16;;;3.00;60.45
46714;BME280;32445;51.376;10.874;2022-11-27T06:23:31;100513.63;;;3.01;60.34
46714;BME280;32445;51.376;10.874;2022-11-27T06:26:32;100516.22;;;3.01;60.22
46714;BME280;32445;51.376;10.874;2022-11-27T06:29:33;100515.31;;;3.01;60.37
46714;BME280;32445;51.376;10.874;2022-11-27T06:32:33;100515.34;;;3.02;60.45
46714;BME280;32445;51.376;10.874;2022-11-27T06:35:34;100506.78;;;3.00;60.40
46714;BME280;32445;51.376;10.874;2022-11-27T06:38:36;100511.06;;;3.01;60.25
46714;BME280;32445;51.376;10.874;2022-11-27T06:41:36;100511.13;;;3.04;60.18
46714;BME280;32445;51.376;10.874;2022-11-27T06:44:36;100508.59;;;3.06;59.50
46714;BME280;32445;51.376;10.874;2022-11-27T06:47:37;100504.31;;;3.06;60.21
46714;BME280;32445;51.376;10.874;2022-11-27T06:50:37;100508.59;;;3.06;59.83
46714;BME280;32445;51.376;10.874;2022-11-27T06:53:38;100508.63;;;3.07;60.17
46714;BME280;32445;51.376;10.874;2022-11-27T06:56:39;100506.91;;;3.08;60.47
46714;BME280;32445;51.376;10.874;2022-11-27T06:59:39;100500.94;;;3.07;59.81
46714;BME280;32445;51.376;10.874;2022-11-27T07:02:40;100502.69;;;3.10;60.10
46714;BME280;32445;51.376;10.874;2022-11-27T07:05:40;100495.03;;;3.11;60.03
46714;BME280;32445;51.376;10.874;2022-11-27T07:08:41;100495.06;;;3.13;60.49
46714;BME280;32445;51.376;10.874;2022-11-27T07:11:41;100501.97;;;3.16;60.27
46714;BME280;32445;51.376;10.874;2022-11-27T07:14:45;100493.44;;;3.17;60.06
46714;BME280;32445;51.376;10.874;2022-11-27T07:17:45;100496.03;;;3.18;59.82
46714;BME280;32445;51.376;10.874;2022-11-27T07:20:52;100495.19;;;3.19;60.10
46714;BME280;32445;51.376;10.874;2022-11-27T07:23:53;100494.41;;;3.23;60.00
46714;BME280;32445;51.376;10.874;2022-11-27T07:26:55;100504.72;;;3.26;60.34
46714;BME280;32445;51.376;10.874;2022-11-27T07:29:55;100498.81;;;3.31;59.38
46714;BME280;32445;51.376;10.874;2022-11-27T07:32:56;100500.53;;;3.30;59.81
46714;BME280;32445;51.376;10.874;2022-11-27T07:39:07;100504.00;;;3.34;60.37
46714;BME280;32445;51.376;10.874;2022-11-27T07:42:07;100486.94;;;3.34;60.15
46714;BME280;32445;51.376;10.874;2022-11-27T07:45:08;100482.66;;;3.36;60.38
46714;BME280;32445;51.376;10.874;2022-11-27T07:48:09;100465.59;;;3.37;60.41
46714;BME280;32445;51.376;10.874;2022-11-27T07:51:11;100470.75;;;3.38;60.54
46714;BME280;32445;51.376;10.874;2022-11-27T07:54:11;100473.34;;;3.40;60.12
46714;BME280;32445;51.376;10.874;2022-11-27T07:57:12;100464.75;;;3.39;60.03
46714;BME280;32445;51.376;10.874;2022-11-27T08:00:12;100465.69;;;3.43;60.10
46714;BME280;32445;51.376;10.874;2022-11-27T08:03:13;100463.19;;;3.46;60.26
46714;BME280;32445;51.376;10.874;2022-11-27T08:06:24;100467.50;;;3.47;60.44
46714;BME280;32445;51.376;10.874;2022-11-27T08:09:24;100460.66;;;3.49;60.77
46714;BME280;32445;51.376;10.874;2022-11-27T08:12:25;100464.16;;;3.51;60.58
46714;BME280;32445;51.376;10.874;2022-11-27T08:15:25;100453.00;;;3.52;60.39
46714;BME280;32445;51.376;10.874;2022-11-27T08:18:26;100453.91;;;3.54;60.32
46714;BME280;32445;51.376;10.874;2022-11-27T08:21:28;100449.69;;;3.58;60.39
46714;BME280;32445;51.376;10.874;2022-11-27T08:24:29;100448.88;;;3.60;60.57
46714;BME280;32445;51.376;10.874;2022-11-27T08:27:30;100449.81;;;3.64;60.55
46714;BME280;32445;51.376;10.874;2022-11-27T08:30:31;100441.28;;;3.67;60.62
46714;BME280;32445;51.376;10.874;2022-11-27T08:33:32;100440.50;;;3.71;60.61
46714;BME280;32445;51.376;10.874;2022-11-27T08:36:33;100437.97;;;3.74;60.69
46714;BME280;32445;51.376;10.874;2022-11-27T08:39:34;100436.31;;;3.76;60.33
46714;BME280;32445;51.376;10.874;2022-11-27T08:42:34;100436.38;;;3.79;60.48
46714;BME280;32445;51.376;10.874;2022-11-27T08:45:37;100438.94;;;3.79;60.86
46714;BME280;32445;51.376;10.874;2022-11-27T08:48:38;100432.88;;;3.75;61.12
46714;BME280;32445;51.376;10.874;2022-11-27T08:51:38;100442.31;;;3.78;61.17
46714;BME280;32445;51.376;10.874;2022-11-27T08:54:39;100443.28;;;3.83;61.15
46714;BME280;32445;51.376;10.874;2022-11-27T08:57:39;100443.41;;;3.92;61.08
46714;BME280;32445;51.376;10.874;2022-11-27T09:00:40;100441.81;;;3.99;61.08
46714;BME280;32445;51.376;10.874;2022-11-27T09:03:41;100441.84;;;4.02;60.72
46714;BME280;32445;51.376;10.874;2022-11-27T09:06:41;100446.22;;;4.06;60.83
46714;BME280;32445;51.376;10.874;2022-11-27T09:09:41;100439.38;;;4.08;60.92
46714;BME280;32445;51.376;10.874;2022-11-27T09:12:42;100441.13;;;4.11;60.46
46714;BME280;32445;51.376;10.874;2022-11-27T09:15:43;100434.34;;;4.13;60.58
46714;BME280;32445;51.376;10.874;2022-11-27T09:18:47;100434.34;;;4.14;61.20
46714;BME280;32445;51.376;10.874;2022-11-27T09:21:48;100436.19;;;4.23;60.69
46714;BME280;32445;51.376;10.874;2022-11-27T09:24:49;100437.97;;;4.27;61.12
46714;BME280;32445;51.376;10.874;2022-11-27T09:27:49;100438.84;;;4.29;60.81
46714;BME280;32445;51.376;10.874;2022-11-27T09:30:57;100438.06;;;4.35;60.80
46714;BME280;32445;51.376;10.874;2022-11-27T09:33:57;100438.16;;;4.41;60.93
46714;BME280;32445;51.376;10.874;2022-11-27T09:36:58;100436.50;;;4.45;60.64
46714;BME280;32445;51.376;10.874;2022-11-27T09:39:58;100426.25;;;4.48;60.45
46714;BME280;32445;51.376;10.874;2022-11-27T09:43:02;100424.63;;;4.53;60.39
46714;BME280;32445;51.376;10.874;2022-11-27T09:46:13;100419.53;;;4.59;60.95
46714;BME280;32445;51.376;10.874;2022-11-27T09:49:21;100416.94;;;4.58;60.69
46714;BME280;32445;51.376;10.874;2022-11-27T09:52:48;100395.44;;;4.53;61.02
46714;BME280;32445;51.376;10.874;2022-11-27T09:55:52;100388.66;;;4.58;60.76
46714;BME280;32445;51.376;10.874;2022-11-27T09:58:58;100392.09;;;4.60;60.44
46714;BME280;32445;51.376;10.874;2022-11-27T10:01:59;100382.72;;;4.60;60.77
46714;BME280;32445;51.376;10.874;2022-11-27T10:05:03;100389.59;;;4.63;61.32
46714;BME280;32445;51.376;10.874;2022-11-27T10:08:29;100387.03;;;4.64;60.77
46714;BME280;32445;51.376;10.874;2022-11-27T10:20:50;100359.91;;;4.93;61.09
46714;BME280;32445;51.376;10.874;2022-11-27T10:24:12;100348.75;;;4.91;61.00
46714;BME280;32445;51.376;10.874;2022-11-27T10:27:22;100337.66;;;4.98;61.14
46714;BME280;32445;51.376;10.874;2022-11-27T10:30:25;100339.47;;;5.08;60.86
46714;BME280;32445;51.376;10.874;2022-11-27T10:33:39;100334.38;;;5.13;60.70
46714;BME280;32445;51.376;10.874;2022-11-27T10:36:45;100342.19;;;5.22;60.98
46714;BME280;32445;51.376;10.874;2022-11-27T10:39:53;100340.56;;;5.29;60.82
46714;BME280;32445;51.376;10.874;2022-11-27T10:46:12;100335.47;;;5.41;60.57
46714;BME280;32445;51.376;10.874;2022-11-27T10:49:14;100327.78;;;5.46;60.96
46714;BME280;32445;51.376;10.874;2022-11-27T10:52:17;100313.25;;;5.51;60.67
46714;BME280;32445;51.376;10.874;2022-11-27T10:55:29;100309.00;;;5.56;61.29
46714;BME280;32445;51.376;10.874;2022-11-27T11:01:43;100292.78;;;5.71;61.90
46714;BME280;32445;51.376;10.874;2022-11-27T11:04:44;100284.25;;;5.81;62.61
46714;BME280;32445;51.376;10.874;2022-11-27T11:08:02;100279.16;;;5.89;62.65
46714;BME280;32445;51.376;10.874;2022-11-27T11:11:07;100272.38;;;6.02;62.94
46714;BME280;32445;51.376;10.874;2022-11-27T11:14:21;100284.41;;;6.06;62.95
46714;BME280;32445;51.376;10.874;2022-11-27T11:17:30;100292.19;;;6.14;62.79
46714;BME280;32445;51.376;10.874;2022-11-27T11:20:36;100289.66;;;6.24;62.63
46714;BME280;32445;51.376;10.874;2022-11-27T11:23:38;100296.53;;;6.30;62.33
46714;BME280;32445;51.376;10.874;2022-11-27T11:26:44;100295.72;;;6.39;62.20
46714;BME280;32445;51.376;10.874;2022-11-27T11:32:46;100279.47;;;6.65;62.45
46714;BME280;32445;51.376;10.874;2022-11-27T11:35:53;100284.66;;;6.74;62.47
46714;BME280;32445;51.376;10.874;2022-11-27T11:38:54;100278.66;;;6.84;62.31
46714;BME280;32445;51.376;10.874;2022-11-27T11:41:55;100276.09;;;6.95;62.25
46714;BME280;32445;51.376;10.874;2022-11-27T11:48:21;100260.63;;;7.12;61.82
46714;BME280;32445;51.376;10.874;2022-11-27T11:51:50;100251.13;;;7.20;61.88
46714;BME280;32445;51.376;10.874;2022-11-27T12:08:02;100213.16;;;7.69;61.18
46714;BME280;32445;51.376;10.874;2022-11-27T12:11:17;100211.44;;;7.75;61.19
46714;BME280;32445;51.376;10.874;2022-11-27T12:30:23;100193.22;;;8.05;60.14
46714;BME280;32445;51.376;10.874;2022-11-27T12:43:35;100188.84;;;8.18;59.53
46714;BME280;32445;51.376;10.874;2022-11-27T12:46:54;100181.97;;;8.18;59.32
46714;BME280;32445;51.376;10.874;2022-11-27T12:50:46;100177.59;;;8.23;59.23
46714;BME280;32445;51.376;10.874;2022-11-27T12:53:40;100165.53;;;8.27;59.32
46714;BME280;32445;51.376;10.874;2022-11-27T12:56:45;100160.31;;;8.33;58.63
46714;BME280;32445;51.376;10.874;2022-11-27T12:59:53;100152.53;;;8.36;59.22
46714;BME280;32445;51.376;10.874;2022-11-27T13:03:14;100147.31;;;8.41;58.95
46714;BME280;32445;51.376;10.874;2022-11-27T13:06:17;100142.16;;;8.45;58.74
46714;BME280;32445;51.376;10.874;2022-11-27T13:09:57;100137.81;;;8.47;59.00
46714;BME280;32445;51.376;10.874;2022-11-27T13:13:15;100136.91;;;8.53;58.53
46714;BME280;32445;51.376;10.874;2022-11-27T13:19:34;100128.25;;;8.57;58.42
46714;BME280;32445;51.376;10.874;2022-11-27T13:22:35;100126.50;;;8.59;58.73
46714;BME280;32445;51.376;10.874;2022-11-27T13:25:46;100117.03;;;8.60;58.38
46714;BME280;32445;51.376;10.874;2022-11-27T13:28:54;100110.97;;;8.61;58.07
46714;BME280;32445;51.376;10.874;2022-11-27T13:32:01;100099.75;;;8.62;57.78
46714;BME280;32445;51.376;10.874;2022-11-27T13:35:06;100099.72;;;8.63;58.20
46714;BME280;32445;51.376;10.874;2022-11-27T13:38:23;100104.06;;;8.63;58.37
46714;BME280;32445;51.376;10.874;2022-11-27T13:41:44;100098.91;;;8.60;58.15
46714;BME280;32445;51.376;10.874;2022-11-27T13:44:57;100099.75;;;8.62;58.11
46714;BME280;32445;51.376;10.874;2022-11-27T13:47:59;100099.75;;;8.62;57.98
46714;BME280;32445;51.376;10.874;2022-11-27T13:51:02;100093.72;;;8.61;58.17
46714;BME280;32445;51.376;10.874;2022-11-27T13:54:11;100090.28;;;8.59;58.10
46714;BME280;32445;51.376;10.874;2022-11-27T13:57:16;100086.84;;;8.59;57.72
46714;BME280;32445;51.376;10.874;2022-11-27T14:00:17;100080.81;;;8.60;57.48
46714;BME280;32445;51.376;10.874;2022-11-27T14:03:32;100088.59;;;8.57;57.72
46714;BME280;32445;51.376;10.874;2022-11-27T14:06:37;100083.44;;;8.57;57.76
46714;BME280;32445;51.376;10.874;2022-11-27T14:09:44;100079.97;;;8.55;58.17
46714;BME280;32445;51.376;10.874;2022-11-27T14:12:57;100080.00;;;8.52;57.37
46714;BME280;32445;51.376;10.874;2022-11-27T14:16:00;100073.09;;;8.51;57.40
46714;BME280;32445;51.376;10.874;2022-11-27T14:19:20;100078.31;;;8.47;57.77
46714;BME280;32445;51.376;10.874;2022-11-27T14:25:41;100063.66;;;8.43;57.74
46714;BME280;32445;51.376;10.874;2022-11-27T14:28:44;100053.31;;;8.40;57.48
46714;BME280;32445;51.376;10.874;2022-11-27T14:32:18;100055.97;;;8.36;58.03
46714;BME280;32445;51.376;10.874;2022-11-27T14:35:24;100052.50;;;8.35;57.70
46714;BME280;32445;51.376;10.874;2022-11-27T14:38:29;100041.34;;;8.31;57.51
46714;BME280;32445;51.376;10.874;2022-11-27T14:41:30;100044.78;;;8.29;57.51
46714;BME280;32445;51.376;10.874;2022-11-27T14:44:31;100040.50;;;8.26;57.72
46714;BME280;32445;51.376;10.874;2022-11-27T14:47:32;100033.66;;;8.24;57.54
46714;BME280;32445;51.376;10.874;2022-11-27T14:50:33;100029.38;;;8.20;57.75
46714;BME280;32445;51.376;10.874;2022-11-27T14:53:33;100023.34;;;8.16;57.38
46714;BME280;32445;51.376;10.874;2022-11-27T14:56:39;100019.94;;;8.12;57.36
46714;BME280;32445;51.376;10.874;2022-11-27T14:59:40;100021.69;;;8.09;57.32
46714;BME280;32445;51.376;10.874;2022-11-27T15:02:41;100018.25;;;8.07;57.72
46714;BME280;32445;51.376;10.874;2022-11-27T15:05:50;100021.75;;;8.03;57.66
46714;BME280;32445;51.376;10.874;2022-11-27T15:08:52;100010.53;;;7.99;58.00
46714;BME280;32445;51.376;10.874;2022-11-27T15:15:26;100000.31;;;7.88;57.32
46714;BME280;32445;51.376;10.874;2022-11-27T15:18:29;99989.97;;;7.87;57.52
46714;BME280;32445;51.376;10.874;2022-11-27T15:21:34;99982.25;;;7.80;57.11
46714;BME280;32445;51.376;10.874;2022-11-27T15:24:37;99977.09;;;7.77;57.39
46714;BME280;32445;51.376;10.874;2022-11-27T15:27:45;99968.53;;;7.71;57.69
46714;BME280;32445;51.376;10.874;2022-11-27T15:30:46;99968.56;;;7.66;57.53
46714;BME280;32445;51.376;10.874;2022-11-27T15:37:21;99961.75;;;7.56;57.43
46714;BME280;32445;51.376;10.874;2022-11-27T15:40:32;99955.75;;;7.49;57.23
46714;BME280;32445;51.376;10.874;2022-11-27T15:43:33;99954.06;;;7.47;57.04
46714;BME280;32445;51.376;10.874;2022-11-27T15:46:34;99950.66;;;7.41;56.93
46714;BME280;32445;51.376;10.874;2022-11-27T15:49:34;99943.78;;;7.36;56.80
46714;BME280;32445;51.376;10.874;2022-11-27T15:52:34;99937.81;;;7.32;57.10
46714;BME280;32445;51.376;10.874;2022-11-27T15:55:35;99935.22;;;7.27;57.15
46714;BME280;32445;51.376;10.874;2022-11-27T15:58:35;99934.41;;;7.22;57.41
46714;BME280;32445;51.376;10.874;2022-11-27T16:01:36;99942.19;;;7.19;57.20
46714;BME280;32445;51.376;10.874;2022-11-27T16:04:37;99931.00;;;7.14;57.06
46714;BME280;32445;51.376;10.874;2022-11-27T16:07:38;99926.72;;;7.10;57.20
46714;BME280;32445;51.376;10.874;2022-11-27T16:10:39;99926.75;;;7.07;56.78
46714;BME280;32445;51.376;10.874;2022-11-27T16:13:40;99927.63;;;7.03;57.17
46714;BME280;32445;51.376;10.874;2022-11-27T16:16:40;99915.59;;;6.99;57.27
46714;BME280;32445;51.376;10.874;2022-11-27T16:19:40;99906.13;;;6.95;57.28
46714;BME280;32445;51.376;10.874;2022-11-27T16:22:41;99907.03;;;6.92;57.47
46714;BME280;32445;51.376;10.874;2022-11-27T16:25:41;99907.03;;;6.87;57.38
46714;BME280;32445;51.376;10.874;2022-11-27T16:28:42;99905.31;;;6.85;57.28
46714;BME280;32445;51.376;10.874;2022-11-27T16:31:42;99906.22;;;6.82;57.04
46714;BME280;32445;51.376;10.874;2022-11-27T16:34:42;99898.47;;;6.78;57.46
46714;BME280;32445;51.376;10.874;2022-11-27T16:37:43;99906.22;;;6.74;57.35
46714;BME280;32445;51.376;10.874;2022-11-27T16:40:43;99907.09;;;6.72;57.76
46714;BME280;32445;51.376;10.874;2022-11-27T16:43:48;99904.53;;;6.67;57.18
46714;BME280;32445;51.376;10.874;2022-11-27T16:46:49;99907.13;;;6.64;57.24
46714;BME280;32445;51.376;10.874;2022-11-27T16:49:50;99903.72;;;6.61;57.70
46714;BME280;32445;51.376;10.874;2022-11-27T16:52:50;99897.72;;;6.55;57.37
46714;BME280;32445;51.376;10.874;2022-11-27T16:55:51;99901.16;;;6.51;57.33
46714;BME280;32445;51.376;10.874;2022-11-27T16:58:52;99888.28;;;6.47;57.78
46714;BME280;32445;51.376;10.874;2022-11-27T17:01:53;99885.72;;;6.44;57.57
46714;BME280;32445;51.376;10.874;2022-11-27T17:04:54;99884.00;;;6.41;57.20
46714;BME280;32445;51.376;10.874;2022-11-27T17:07:55;99880.56;;;6.39;57.19
46714;BME280;32445;51.376;10.874;2022-11-27T17:10:55;99886.59;;;6.36;57.53
46714;BME280;32445;51.376;10.874;2022-11-27T17:13:56;99878.88;;;6.35;57.64
46714;BME280;32445;51.376;10.874;2022-11-27T17:16:57;99883.16;;;6.33;57.85
46714;BME280;32445;51.376;10.874;2022-11-27T17:19:57;99872.84;;;6.30;57.70
46714;BME280;32445;51.376;10.874;2022-11-27T17:22:59;99867.72;;;6.28;57.42
46714;BME280;32445;51.376;10.874;2022-11-27T17:26:11;99867.72;;;6.22;57.72
46714;BME280;32445;51.376;10.874;2022-11-27T17:29:15;99872.91;;;6.20;58.12
46714;BME280;32445;51.376;10.874;2022-11-27T17:32:16;99866.03;;;6.19;57.85
46714;BME280;32445;51.376;10.874;2022-11-27T17:35:17;99867.72;;;6.17;58.17
46714;BME280;32445;51.376;10.874;2022-11-27T17:38:17;99855.72;;;6.16;58.15
46714;BME280;32445;51.376;10.874;2022-11-27T17:41:18;99854.84;;;6.14;57.99
46714;BME280;32445;51.376;10.874;2022-11-27T17:44:19;99853.16;;;6.13;57.98
46714;BME280;32445;51.376;10.874;2022-11-27T17:47:19;99853.13;;;6.12;57.92
46714;BME280;32445;51.376;10.874;2022-11-27T17:50:19;99854.03;;;6.09;58.06
46714;BME280;32445;51.376;10.874;2022-11-27T17:53:20;99854.03;;;6.08;58.28